Time;durP1;ratioP1;P1;durP2;ratioP2;P2;SDS_P1;SDS_P2;PMS_P1;PMS_P2;Temp;Humidity;BMP_temperature;BMP_pressure;BME280_temperature;BME280_humidity;BME280_pressure;Samples;Min_cycle;Max_cycle;Signal;HPM_P1;HPM_P2
2024/01/02 00:02:28;;;;;;;15.93;2.13;;;;;;;3.53;100.00;99996.41;6036135;28;20396;-72
2024/01/02 00:05:23;;;;;;;13.43;2.27;;;;;;;3.45;100.00;99983.84;6042456;28;20040;-72
2024/01/02 00:08:19;;;;;;;8.27;2.00;;;;;;;3.40;100.00;99983.38;6041639;28;20072;-72
2024/01/02 00:11:14;;;;;;;10.57;1.70;;;;;;;3.54;100.00;99988.41;6037038;28;20045;-72
2024/01/02 00:14:09;;;;;;;7.73;1.73;;;;;;;3.45;100.00;99976.00;6031111;28;20398;-72
2024/01/02 00:17:05;;;;;;;7.70;2.08;;;;;;;3.43;100.00;99967.44;6035381;28;20025;-72
2024/01/02 00:20:00;;;;;;;14.00;1.83;;;;;;;3.38;100.00;99966.13;6040210;28;20026;-72
2024/01/02 00:22:55;;;;;;;6.97;1.90;;;;;;;3.35;100.00;99956.72;6034438;28;20069;-72
2024/01/02 00:25:50;;;;;;;8.53;1.90;;;;;;;3.40;100.00;99965.03;6036378;28;20057;-72
2024/01/02 00:28:46;;;;;;;10.67;1.93;;;;;;;3.33;100.00;99948.16;6032599;28;20038;-72
2024/01/02 00:31:44;;;;;;;7.73;1.80;;;;;;;3.34;100.00;99951.59;6039394;28;20033;-72
2024/01/02 00:34:39;;;;;;;10.25;2.38;;;;;;;3.43;100.00;99949.09;6031721;28;20116;-72
2024/01/02 00:37:35;;;;;;;13.80;2.43;;;;;;;3.41;100.00;99945.75;6032388;28;20040;-72
2024/01/02 00:40:31;;;;;;;10.03;1.57;;;;;;;3.45;100.00;99954.22;6027588;28;20360;-72
2024/01/02 00:43:27;;;;;;;13.55;2.20;;;;;;;3.42;100.00;99931.72;6032685;28;20022;-72
2024/01/02 00:46:22;;;;;;;7.78;2.17;;;;;;;3.43;100.00;99932.53;6030256;28;20490;-73
2024/01/02 00:49:18;;;;;;;11.27;1.93;;;;;;;3.46;100.00;99933.13;6033223;28;20470;-72
2024/01/02 00:52:13;;;;;;;10.97;1.93;;;;;;;3.44;100.00;99932.41;6038784;28;20030;-72
2024/01/02 00:55:09;;;;;;;7.07;1.60;;;;;;;3.60;100.00;99934.66;6037683;28;20038;-73
2024/01/02 00:58:04;;;;;;;7.72;1.80;;;;;;;3.50;100.00;99918.84;6026417;28;20037;-72
2024/01/02 01:00:59;;;;;;;9.97;2.67;;;;;;;3.48;100.00;99912.88;6039474;28;20041;-72
2024/01/02 01:03:55;;;;;;;6.47;1.83;;;;;;;3.49;100.00;99917.16;6037566;28;20065;-72
2024/01/02 01:06:51;;;;;;;8.02;2.13;;;;;;;3.54;100.00;99909.78;6037491;28;20547;-72
2024/01/02 01:09:47;;;;;;;11.60;3.08;;;;;;;3.56;100.00;99902.63;6032322;28;20464;-73
2024/01/02 01:12:44;;;;;;;11.17;1.77;;;;;;;3.54;100.00;99888.81;6028395;28;20034;-72
2024/01/02 01:15:40;;;;;;;8.30;1.85;;;;;;;3.61;100.00;99891.78;6026831;28;20116;-73
2024/01/02 01:18:36;;;;;;;7.17;1.90;;;;;;;3.66;100.00;99897.50;6031896;28;20033;-73
2024/01/02 01:21:31;;;;;;;10.52;2.05;;;;;;;3.67;100.00;99893.09;6037054;28;20281;-72
2024/01/02 01:24:27;;;;;;;7.55;1.67;;;;;;;3.68;100.00;99885.09;6036187;28;20034;-72
2024/01/02 01:27:22;;;;;;;19.23;2.50;;;;;;;3.76;100.00;99889.69;6035993;28;20540;-72
2024/01/02 01:30:17;;;;;;;4.83;1.70;;;;;;;3.73;100.00;99882.09;6034310;28;20264;-72
2024/01/02 01:33:13;;;;;;;9.07;1.30;;;;;;;3.87;100.00;99876.56;6033817;28;20129;-72
2024/01/02 01:36:08;;;;;;;5.07;1.80;;;;;;;3.89;100.00;99870.25;6038203;28;20449;-72
2024/01/02 01:39:04;;;;;;;8.97;2.07;;;;;;;3.88;100.00;99875.63;6035775;28;20121;-73
2024/01/02 01:42:00;;;;;;;11.57;1.90;;;;;;;3.89;100.00;99856.28;6030940;28;20744;-72
2024/01/02 01:44:55;;;;;;;8.53;1.90;;;;;;;3.90;100.00;99857.97;6033527;28;20040;-72
2024/01/02 01:47:50;;;;;;;5.43;1.43;;;;;;;3.93;100.00;99849.84;6039864;28;20034;-73
2024/01/02 01:50:46;;;;;;;8.95;2.40;;;;;;;4.03;100.00;99843.72;6031380;28;20038;-72
2024/01/02 01:53:42;;;;;;;10.33;1.80;;;;;;;4.14;100.00;99845.47;6034751;28;20038;-72
2024/01/02 01:56:39;;;;;;;13.02;3.13;;;;;;;4.22;100.00;99843.88;6028597;28;20503;-72
2024/01/02 01:59:34;;;;;;;19.77;2.33;;;;;;;4.27;100.00;99834.81;6032918;28;20049;-72
2024/01/02 02:02:29;;;;;;;9.63;1.50;;;;;;;4.31;100.00;99825.69;6030529;28;20393;-72
2024/01/02 02:05:26;;;;;;;9.20;2.23;;;;;;;4.37;100.00;99818.16;6037421;28;20385;-72
2024/01/02 02:08:21;;;;;;;12.75;2.17;;;;;;;4.41;100.00;99811.66;6042227;28;20161;-72
2024/01/02 02:11:19;;;;;;;13.70;2.13;;;;;;;4.47;100.00;99800.66;6034805;28;20030;-72
2024/01/02 02:14:15;;;;;;;7.35;1.67;;;;;;;4.45;100.00;99792.09;6034281;28;20324;-72
2024/01/02 02:17:18;;;;;;;9.70;1.90;;;;;;;4.46;100.00;99785.88;6035800;28;20041;-73
2024/01/02 02:20:13;;;;;;;7.65;1.77;;;;;;;4.50;100.00;99778.56;6046248;28;20375;-72
2024/01/02 02:23:08;;;;;;;9.13;1.60;;;;;;;4.53;100.00;99787.03;6039431;28;20117;-72
2024/01/02 02:26:04;;;;;;;9.17;1.50;;;;;;;4.61;100.00;99766.19;6042713;28;20064;-72
2024/01/02 02:28:59;;;;;;;16.03;1.90;;;;;;;4.67;100.00;99768.28;6036050;28;20108;-72
2024/01/02 02:31:55;;;;;;;6.93;1.43;;;;;;;4.76;100.00;99762.25;6042130;28;20782;-72
2024/01/02 02:34:50;;;;;;;10.02;1.67;;;;;;;4.78;100.00;99759.50;6045107;28;20469;-72
2024/01/02 02:37:45;;;;;;;8.05;1.67;;;;;;;4.76;100.00;99748.28;6036058;28;20497;-72
2024/01/02 02:40:41;;;;;;;8.97;1.37;;;;;;;4.81;100.00;99725.91;6034556;28;20049;-72
2024/01/02 02:43:36;;;;;;;8.63;1.60;;;;;;;4.93;100.00;99728.41;6046977;28;20577;-72
2024/01/02 02:46:31;;;;;;;10.07;1.80;;;;;;;4.91;100.00;99709.34;6034117;28;20320;-72
2024/01/02 02:49:27;;;;;;;7.83;1.80;;;;;;;4.90;100.00;99699.78;6042740;28;20030;-72
2024/01/02 02:52:23;;;;;;;9.27;1.97;;;;;;;4.94;100.00;99691.53;6037733;28;20470;-72
2024/01/02 02:55:18;;;;;;;5.90;1.58;;;;;;;5.03;100.00;99698.56;6040360;28;20265;-72
2024/01/02 02:58:13;;;;;;;6.60;1.60;;;;;;;4.99;100.00;99676.19;6045004;28;20633;-72
2024/01/02 03:01:19;;;;;;;6.75;1.33;;;;;;;5.04;100.00;99676.59;6038946;28;20084;-72
2024/01/02 03:04:15;;;;;;;14.30;1.83;;;;;;;5.02;100.00;99670.66;6041747;28;20040;-72
2024/01/02 03:07:10;;;;;;;8.52;1.45;;;;;;;5.04;100.00;99654.75;6041979;28;20034;-72
2024/01/02 03:10:06;;;;;;;6.18;1.13;;;;;;;5.05;100.00;99638.03;6037246;28;20034;-72
2024/01/02 03:13:01;;;;;;;8.45;1.90;;;;;;;5.12;100.00;99657.53;6033903;28;20081;-72
2024/01/02 03:15:57;;;;;;;9.98;1.55;;;;;;;5.14;100.00;99647.69;6048258;28;20030;-72
2024/01/02 03:18:53;;;;;;;10.77;1.80;;;;;;;5.18;100.00;99651.72;6040476;28;20381;-73
2024/01/02 03:21:48;;;;;;;12.45;1.60;;;;;;;5.22;100.00;99645.22;6035291;28;20101;-72
2024/01/02 03:24:43;;;;;;;5.90;1.50;;;;;;;5.22;100.00;99632.06;6033477;28;20045;-72
2024/01/02 03:27:39;;;;;;;6.37;1.57;;;;;;;5.22;100.00;99622.41;6031706;28;20436;-72
2024/01/02 03:30:34;;;;;;;8.07;1.70;;;;;;;5.25;100.00;99610.78;6039464;28;20100;-71
2024/01/02 03:33:29;;;;;;;8.17;1.73;;;;;;;5.29;100.00;99604.28;6035598;28;20030;-71
2024/01/02 03:36:24;;;;;;;9.27;1.50;;;;;;;5.33;100.00;99600.38;6036706;28;20039;-72
2024/01/02 03:39:20;;;;;;;7.27;1.67;;;;;;;5.39;100.00;99594.56;6032820;28;20092;-72
2024/01/02 03:42:15;;;;;;;7.37;1.27;;;;;;;5.46;100.00;99587.81;6039769;28;20041;-73
2024/01/02 03:45:10;;;;;;;5.43;1.30;;;;;;;5.53;100.00;99582.78;6035086;28;20068;-72
2024/01/02 03:48:06;;;;;;;2.77;0.97;;;;;;;5.49;100.00;99569.09;6038004;28;20292;-72
2024/01/02 03:51:03;;;;;;;3.83;1.25;;;;;;;5.52;100.00;99563.56;6035063;28;20293;-73
2024/01/02 03:53:58;;;;;;;4.10;1.50;;;;;;;5.51;100.00;99561.09;6041621;28;20084;-72
2024/01/02 03:56:54;;;;;;;6.60;1.33;;;;;;;5.46;100.00;99544.91;6035470;28;20030;-72
2024/01/02 03:59:49;;;;;;;4.30;1.10;;;;;;;5.47;100.00;99543.91;6036126;28;20034;-72
2024/01/02 04:02:44;;;;;;;9.57;1.60;;;;;;;5.38;100.00;99533.28;6029990;28;20272;-73
2024/01/02 04:05:39;;;;;;;5.40;1.30;;;;;;;5.41;100.00;99526.91;6038924;28;20060;-72
2024/01/02 04:08:38;;;;;;;5.83;1.67;;;;;;;5.32;100.00;99514.66;6040951;28;20150;-71
2024/01/02 04:11:33;;;;;;;5.38;1.20;;;;;;;5.36;100.00;99516.00;6025615;28;20034;-73
2024/01/02 04:14:29;;;;;;;6.47;0.90;;;;;;;5.32;100.00;99502.34;6028439;28;20045;-73
2024/01/02 04:17:24;;;;;;;5.97;1.30;;;;;;;5.36;100.00;99495.81;6040556;28;20037;-72
2024/01/02 04:20:19;;;;;;;5.87;1.10;;;;;;;5.35;100.00;99485.47;6041052;28;20092;-73
2024/01/02 04:23:15;;;;;;;3.90;1.40;;;;;;;5.38;100.00;99478.09;6035402;28;20030;-72
2024/01/02 04:26:10;;;;;;;4.93;1.55;;;;;;;5.42;100.00;99478.63;6038003;28;20074;-72
2024/01/02 04:29:05;;;;;;;3.07;1.43;;;;;;;5.32;100.00;99462.09;6031873;28;20124;-72
2024/01/02 04:32:01;;;;;;;8.40;1.70;;;;;;;5.19;100.00;99466.84;6041773;28;20457;-73
2024/01/02 04:34:56;;;;;;;7.43;1.73;;;;;;;4.94;100.00;99444.63;6037565;28;20026;-72
2024/01/02 04:37:51;;;;;;;5.30;1.80;;;;;;;4.84;100.00;99453.50;6031690;28;20030;-73
2024/01/02 04:40:47;;;;;;;8.27;1.63;;;;;;;4.67;100.00;99426.97;6032653;28;20456;-72
2024/01/02 04:43:42;;;;;;;5.77;1.40;;;;;;;4.62;100.00;99437.06;6031481;28;20037;-72
2024/01/02 04:46:37;;;;;;;9.97;1.80;;;;;;;4.55;100.00;99420.22;6035860;28;20040;-72
2024/01/02 04:49:33;;;;;;;5.63;1.10;;;;;;;4.51;100.00;99412.78;6031560;28;20088;-73
2024/01/02 04:52:29;;;;;;;13.63;1.57;;;;;;;4.44;100.00;99402.00;6037378;28;20129;-73
2024/01/02 04:55:25;;;;;;;6.55;1.85;;;;;;;4.49;100.00;99405.03;6030761;28;20110;-72
2024/01/02 04:58:20;;;;;;;9.10;1.70;;;;;;;4.45;100.00;99408.91;6028535;28;20034;-71
2024/01/02 05:01:15;;;;;;;5.33;1.37;;;;;;;4.46;100.00;99393.97;6037000;28;20297;-72
2024/01/02 05:04:11;;;;;;;7.13;1.50;;;;;;;4.44;100.00;99396.75;6044981;28;20269;-70
2024/01/02 05:07:06;;;;;;;7.57;1.50;;;;;;;4.41;100.00;99378.66;6039521;28;20277;-72
2024/01/02 05:10:02;;;;;;;9.45;2.83;;;;;;;4.40;100.00;99377.03;6035215;28;20356;-71
2024/01/02 05:12:58;;;;;;;5.00;1.73;;;;;;;4.34;100.00;99355.75;6032310;28;20042;-71
2024/01/02 05:15:53;;;;;;;4.10;1.05;;;;;;;4.31;100.00;99354.22;6045004;28;20022;-72
2024/01/02 05:18:48;;;;;;;6.47;1.90;;;;;;;4.37;100.00;99358.94;6038349;28;20040;-72
2024/01/02 05:21:44;;;;;;;3.80;1.30;;;;;;;4.34;100.00;99355.75;6039260;28;20045;-72
2024/01/02 05:24:39;;;;;;;13.30;1.43;;;;;;;4.31;100.00;99342.91;6033336;28;20034;-72
2024/01/02 05:27:35;;;;;;;7.80;1.30;;;;;;;4.31;100.00;99338.47;6024251;28;20026;-71
2024/01/02 05:30:30;;;;;;;6.95;1.55;;;;;;;4.27;100.00;99315.31;6033090;28;20728;-71
2024/01/02 05:33:25;;;;;;;3.50;1.10;;;;;;;4.25;100.00;99325.91;6033396;28;20088;-72
2024/01/02 05:36:21;;;;;;;6.63;1.13;;;;;;;4.29;100.00;99327.31;6036362;28;20075;-71
2024/01/02 05:39:16;;;;;;;4.20;1.50;;;;;;;4.30;100.00;99320.25;6032662;28;20864;-71
2024/01/02 05:42:12;;;;;;;6.53;1.63;;;;;;;4.33;100.00;99314.72;6044872;28;20033;-70
2024/01/02 05:45:08;;;;;;;4.05;1.33;;;;;;;4.34;100.00;99304.09;6032243;28;20171;-72
2024/01/02 05:48:04;;;;;;;5.95;1.55;;;;;;;4.28;100.00;99288.91;6043057;28;20065;-72
2024/01/02 05:50:59;;;;;;;6.07;1.35;;;;;;;4.38;100.00;99304.63;6043376;28;20029;-73
2024/01/02 05:53:54;;;;;;;4.60;1.08;;;;;;;4.33;100.00;99293.72;6045260;28;20033;-72
2024/01/02 05:56:50;;;;;;;6.00;1.05;;;;;;;4.36;100.00;99293.44;6032497;28;20444;-72
2024/01/02 05:59:45;;;;;;;6.78;1.60;;;;;;;4.36;100.00;99294.28;6039467;28;20034;-72
2024/01/02 06:02:40;;;;;;;4.90;1.43;;;;;;;4.37;100.00;99287.25;6029296;28;20084;-72
2024/01/02 06:05:36;;;;;;;4.73;1.43;;;;;;;4.39;100.00;99277.41;6037957;28;20292;-72
2024/01/02 06:08:32;;;;;;;2.53;1.13;;;;;;;4.40;100.00;99276.47;6045119;28;20030;-72
2024/01/02 06:11:28;;;;;;;5.40;1.25;;;;;;;4.43;100.00;99277.00;6040773;28;20041;-72
2024/01/02 06:14:23;;;;;;;4.83;1.40;;;;;;;4.43;100.00;99263.88;6038803;28;20115;-70
2024/01/02 06:17:18;;;;;;;5.93;1.27;;;;;;;4.45;100.00;99272.44;6040942;28;20034;-71
2024/01/02 06:20:14;;;;;;;5.75;1.10;;;;;;;4.44;100.00;99262.06;6042958;28;20030;-72
2024/01/02 06:23:09;;;;;;;4.97;1.50;;;;;;;4.37;100.00;99235.59;6045787;28;20057;-70
2024/01/02 06:26:05;;;;;;;4.27;1.10;;;;;;;4.42;100.00;99246.47;6033253;28;20269;-71
2024/01/02 06:29:00;;;;;;;4.85;1.33;;;;;;;4.38;100.00;99233.78;6047786;28;20014;-72
2024/01/02 06:31:55;;;;;;;4.50;1.02;;;;;;;4.42;100.00;99228.13;6037128;28;20462;-71
2024/01/02 06:34:51;;;;;;;3.27;1.27;;;;;;;4.43;100.00;99227.13;6033216;28;20030;-72
2024/01/02 06:37:46;;;;;;;4.17;0.83;;;;;;;4.42;100.00;99209.75;6030056;28;20022;-71
2024/01/02 06:40:41;;;;;;;6.83;1.20;;;;;;;4.42;100.00;99209.75;6039077;28;20269;-72
2024/01/02 06:43:37;;;;;;;5.77;1.43;;;;;;;4.37;100.00;99191.00;6036820;28;20038;-71
2024/01/02 06:46:32;;;;;;;4.03;1.30;;;;;;;4.41;100.00;99192.34;6028230;28;20045;-73
2024/01/02 06:49:27;;;;;;;5.43;1.50;;;;;;;4.38;100.00;99176.03;6021301;28;20117;-72
2024/01/02 06:52:22;;;;;;;3.00;0.80;;;;;;;4.45;100.00;99172.72;6029952;28;20096;-72
2024/01/02 06:55:18;;;;;;;3.77;1.40;;;;;;;4.40;100.00;99153.97;6030590;28;20042;-71
2024/01/02 06:58:13;;;;;;;3.20;1.10;;;;;;;4.46;100.00;99148.13;6031064;28;20493;-71
2024/01/02 07:01:10;;;;;;;3.30;0.90;;;;;;;4.43;100.00;99148.41;6030055;28;20121;-71
2024/01/02 07:04:05;;;;;;;2.63;1.00;;;;;;;4.45;100.00;99145.66;6034709;28;20030;-71
2024/01/02 07:07:00;;;;;;;3.33;1.10;;;;;;;4.43;100.00;99132.66;6032285;28;20087;-72
2024/01/02 07:09:55;;;;;;;2.93;0.80;;;;;;;4.48;100.00;99143.56;6040594;28;20033;-72
2024/01/02 07:12:51;;;;;;;4.00;1.37;;;;;;;4.48;100.00;99146.19;6032023;28;20065;-72
2024/01/02 07:15:46;;;;;;;2.87;0.97;;;;;;;4.49;100.00;99137.31;6025571;28;20098;-72
2024/01/02 07:18:41;;;;;;;3.10;0.90;;;;;;;4.43;100.00;99126.59;6038481;28;20348;-71
2024/01/02 07:21:37;;;;;;;3.63;1.17;;;;;;;4.42;100.00;99125.78;6038927;28;20297;-71
2024/01/02 07:24:34;;;;;;;4.05;1.08;;;;;;;4.44;100.00;99139.56;6030033;28;20030;-71
2024/01/02 07:27:29;;;;;;;2.97;0.90;;;;;;;4.50;100.00;99138.16;6030512;28;20042;-70
2024/01/02 07:30:24;;;;;;;2.93;0.80;;;;;;;4.53;100.00;99143.94;6033567;28;20045;-71
2024/01/02 07:33:19;;;;;;;2.83;1.10;;;;;;;4.46;100.00;99115.78;6029754;28;20055;-71
2024/01/02 07:36:17;;;;;;;8.97;1.30;;;;;;;4.41;100.00;99105.75;6027010;28;20113;-72
2024/01/02 07:39:12;;;;;;;3.30;0.80;;;;;;;4.49;100.00;99116.34;6030771;28;20457;-72
2024/01/02 07:42:09;;;;;;;3.13;0.63;;;;;;;4.52;100.00;99113.41;6044255;28;20034;-72
2024/01/02 07:45:04;;;;;;;5.85;1.10;;;;;;;4.52;100.00;99110.78;6036973;28;20396;-71
2024/01/02 07:48:00;;;;;;;1.25;0.50;;;;;;;4.55;100.00;99118.38;6031795;28;20048;-73
2024/01/02 07:50:55;;;;;;;5.20;1.10;;;;;;;4.56;100.00;99104.28;6039823;28;20458;-72
2024/01/02 07:53:51;;;;;;;2.80;0.80;;;;;;;4.55;100.00;99092.13;6030510;28;20061;-73
2024/01/02 07:56:46;;;;;;;1.00;0.50;;;;;;;4.48;100.00;99075.34;6035174;28;20037;-70
2024/01/02 07:59:42;;;;;;;3.35;0.52;;;;;;;4.51;100.00;99087.34;6028020;28;20537;-73
2024/01/02 08:02:37;;;;;;;2.13;1.10;;;;;;;4.48;100.00;99077.13;6034630;28;20584;-73
2024/01/02 08:05:34;;;;;;;4.72;1.17;;;;;;;4.55;100.00;99070.31;6025768;28;20034;-74
2024/01/02 08:08:30;;;;;;;2.60;0.98;;;;;;;4.56;100.00;99075.41;6036989;28;20458;-73
2024/01/02 08:11:26;;;;;;;2.13;0.80;;;;;;;4.57;100.00;99068.34;6027735;28;20034;-74
2024/01/02 08:14:22;;;;;;;1.98;0.93;;;;;;;4.55;100.00;99052.75;6031199;28;20038;-73
2024/01/02 08:17:23;;;;;;;2.58;0.90;;;;;;;4.55;100.00;99057.19;6033848;28;20452;-74
2024/01/02 08:20:18;;;;;;;3.15;1.15;;;;;;;4.53;100.00;99038.13;6027511;28;20389;-73
2024/01/02 08:23:14;;;;;;;4.57;1.40;;;;;;;4.44;100.00;99023.28;6029763;28;20043;-70
2024/01/02 08:26:12;;;;;;;2.47;1.20;;;;;;;4.46;100.00;99037.91;6029852;28;20541;-71
2024/01/02 08:29:08;;;;;;;2.00;0.82;;;;;;;4.40;100.00;99003.56;6033983;28;20112;-72
2024/01/02 08:32:03;;;;;;;1.87;0.80;;;;;;;4.38;100.00;99003.69;6026077;28;20038;-72
2024/01/02 08:34:59;;;;;;;5.45;0.90;;;;;;;4.34;100.00;99002.38;6032797;28;20033;-71
2024/01/02 08:37:55;;;;;;;4.10;1.00;;;;;;;4.32;100.00;98987.75;6032116;28;20398;-73
2024/01/02 08:40:50;;;;;;;1.65;0.80;;;;;;;4.33;100.00;98982.34;6026192;28;20034;-72
2024/01/02 08:43:45;;;;;;;1.63;0.80;;;;;;;4.27;100.00;98969.00;6029420;28;20036;-72
2024/01/02 08:46:41;;;;;;;1.88;0.77;;;;;;;4.22;100.00;98961.56;6032907;28;20174;-72
2024/01/02 08:49:36;;;;;;;3.20;0.80;;;;;;;4.26;100.00;98968.19;6024673;28;20038;-72
2024/01/02 08:52:31;;;;;;;3.23;0.80;;;;;;;4.28;100.00;98960.16;6034320;28;20030;-72
2024/01/02 08:55:27;;;;;;;2.47;1.00;;;;;;;4.28;100.00;98965.41;6023801;28;20373;-72
2024/01/02 08:58:22;;;;;;;4.05;1.48;;;;;;;4.27;100.00;98954.06;6032575;28;20035;-72
2024/01/02 09:01:18;;;;;;;1.53;0.67;;;;;;;4.18;100.00;98939.25;6032969;28;20045;-72
2024/01/02 09:04:13;;;;;;;4.88;1.20;;;;;;;4.13;100.00;98936.25;6035546;28;20034;-72
2024/01/02 09:07:09;;;;;;;1.77;0.77;;;;;;;4.22;100.00;98940.59;6030716;28;20124;-71
2024/01/02 09:10:05;;;;;;;1.73;0.70;;;;;;;4.12;100.00;98901.31;6030703;28;20436;-73
2024/01/02 09:13:01;;;;;;;1.55;0.63;;;;;;;4.15;100.00;98913.31;6032725;28;20038;-72
2024/01/02 09:15:57;;;;;;;1.70;0.60;;;;;;;4.14;100.00;98922.97;6026418;28;20090;-72
2024/01/02 09:18:52;;;;;;;1.52;0.50;;;;;;;4.12;100.00;98911.81;6037509;28;20026;-72
2024/01/02 09:21:48;;;;;;;0.77;0.30;;;;;;;4.13;100.00;98910.03;6032553;28;20034;-73
2024/01/02 09:24:44;;;;;;;0.77;0.47;;;;;;;4.10;100.00;98905.88;6020412;28;20547;-72
2024/01/02 09:27:40;;;;;;;1.75;0.50;;;;;;;4.12;100.00;98893.47;6023777;28;20045;-72
2024/01/02 09:30:35;;;;;;;1.48;0.60;;;;;;;4.13;100.00;98900.34;6022973;28;20034;-73
2024/01/02 09:33:30;;;;;;;0.95;0.30;;;;;;;4.13;100.00;98904.78;6022777;28;20041;-73
2024/01/02 09:36:29;;;;;;;2.97;0.53;;;;;;;4.11;100.00;98896.22;6023302;28;20026;-72
2024/01/02 09:39:24;;;;;;;1.58;0.47;;;;;;;4.18;100.00;98895.47;6022953;28;20768;-73
2024/01/02 09:42:33;;;;;;;1.13;0.70;;;;;;;4.21;100.00;98910.91;6028524;28;20042;-73
2024/01/02 09:45:47;;;;;;;0.50;0.47;;;;;;;4.19;100.00;98893.66;6026672;28;20117;-72
2024/01/02 09:48:47;;;;;;;;;;;;;;;4.18;100.00;98905.94;6023294;28;20026;-73
2024/01/02 09:52:02;;;;;;;0.35;0.20;;;;;;;4.12;100.00;98893.47;6030172;28;19933;-72
2024/01/02 09:55:03;;;;;;;1.42;0.55;;;;;;;4.12;100.00;98882.97;6041141;28;20152;-72
2024/01/02 09:58:35;;;;;;;1.50;0.65;;;;;;;4.23;100.00;98887.16;6037683;28;20030;-73
2024/01/02 10:01:49;;;;;;;0.43;0.30;;;;;;;4.17;100.00;98880.72;6027803;28;20073;-73
2024/01/02 10:05:11;;;;;;;3.30;0.98;;;;;;;4.18;100.00;98884.16;6025692;28;20140;-73
2024/01/02 10:08:22;;;;;;;5.18;1.77;;;;;;;4.07;100.00;98874.72;6025062;28;20054;-72
2024/01/02 10:11:46;;;;;;;1.77;0.90;;;;;;;4.07;100.00;98868.66;6026312;28;20109;-72
2024/01/02 10:15:17;;;;;;;8.35;3.72;;;;;;;4.09;100.00;98877.19;6023245;28;20038;-72
2024/01/02 10:19:07;;;;;;;2.17;1.02;;;;;;;4.06;100.00;98867.00;6030128;28;20389;-72
2024/01/02 10:22:11;;;;;;;1.88;0.82;;;;;;;3.99;100.00;98851.06;6015260;28;20046;-72
2024/01/02 10:25:14;;;;;;;2.13;0.88;;;;;;;4.00;100.00;98846.63;6021275;28;20048;-73
2024/01/02 10:28:19;;;;;;;2.45;1.15;;;;;;;4.05;100.00;98854.88;6032442;28;20061;-73
2024/01/02 10:31:38;;;;;;;2.92;0.80;;;;;;;4.13;100.00;98854.94;6032812;28;20038;-73
2024/01/02 10:34:37;;;;;;;3.20;1.02;;;;;;;4.11;100.00;98828.03;6030743;28;20042;-72
2024/01/02 10:37:41;;;;;;;3.13;0.90;;;;;;;4.17;100.00;98833.50;6029858;28;20422;-73
2024/01/02 10:40:40;;;;;;;2.63;1.10;;;;;;;4.23;100.00;98826.81;6033881;28;20062;-72
2024/01/02 10:43:44;;;;;;;2.15;0.80;;;;;;;4.20;100.00;98808.75;6038535;28;20038;-72
2024/01/02 10:46:48;;;;;;;2.67;0.70;;;;;;;4.27;100.00;98828.16;6030487;28;20026;-72
2024/01/02 10:49:59;;;;;;;5.28;1.65;;;;;;;4.29;100.00;98813.09;6023370;28;20037;-72
2024/01/02 10:53:07;;;;;;;16.67;7.15;;;;;;;4.38;100.00;98808.72;6027934;28;20113;-72
2024/01/02 10:56:16;;;;;;;7.00;2.67;;;;;;;4.44;100.00;98815.97;6024742;28;20034;-73
2024/01/02 10:59:30;;;;;;;3.28;1.55;;;;;;;4.50;100.00;98824.06;6027032;28;20045;-73
2024/01/02 11:02:28;;;;;;;;;;;;;;;4.48;100.00;98809.47;6026497;28;20397;-72
2024/01/02 11:05:45;;;;;;;7.00;2.13;;;;;;;4.42;100.00;98781.19;6031613;28;19909;-72
2024/01/02 11:08:48;;;;;;;3.25;1.67;;;;;;;4.53;100.00;98780.94;6029762;28;20054;-72
2024/01/02 11:11:50;;;;;;;3.03;1.20;;;;;;;4.59;100.00;98812.63;6031200;28;20034;-73
2024/01/02 11:14:46;;;;;;;2.10;0.90;;;;;;;4.64;100.00;98820.88;6032544;28;20038;-73
2024/01/02 11:17:42;;;;;;;1.85;0.70;;;;;;;4.68;100.00;98803.00;6034333;28;20026;-73
2024/01/02 11:21:03;;;;;;;2.05;0.88;;;;;;;4.64;100.00;98810.38;6053752;28;20042;-73
2024/01/02 11:24:02;;;;;;;3.15;1.15;;;;;;;4.62;100.00;98807.06;6030101;28;20477;-72
2024/01/02 11:27:00;;;;;;;2.97;1.63;;;;;;;4.61;100.00;98787.06;6023907;28;20111;-72
2024/01/02 11:29:56;;;;;;;4.75;2.50;;;;;;;4.76;100.00;98789.91;6032378;28;20041;-72
2024/01/02 11:33:16;;;;;;;5.85;2.13;;;;;;;4.85;100.00;98780.28;6034607;28;20027;-72
2024/01/02 11:36:32;;;;;;;3.50;1.23;;;;;;;5.01;100.00;98785.59;6026790;28;20721;-72
2024/01/02 11:39:53;;;;;;;1.98;1.20;;;;;;;5.24;100.00;98782.25;6030030;28;20038;-73
2024/01/02 11:43:07;;;;;;;;;;;;;;;5.45;100.00;98780.97;6021127;28;20126;-72
2024/01/02 11:46:02;;;;;;;2.40;0.90;;;;;;;5.52;100.00;98763.59;6025785;28;19913;-72
2024/01/02 11:49:09;;;;;;;1.23;0.73;;;;;;;5.69;100.00;98758.19;6030832;28;20044;-72
2024/01/02 11:52:11;;;;;;;2.28;1.00;;;;;;;5.77;100.00;98750.28;6023672;28;20171;-73
2024/01/02 11:55:23;;;;;;;1.70;0.98;;;;;;;5.92;100.00;98753.94;6028616;28;20045;-72
2024/01/02 11:58:26;;;;;;;2.05;0.98;;;;;;;5.95;100.00;98748.34;6030226;28;20038;-73
2024/01/02 12:01:48;;;;;;;2.53;0.70;;;;;;;6.06;100.00;98741.91;6031240;28;20100;-72
2024/01/02 12:04:54;;;;;;;1.58;0.70;;;;;;;6.20;100.00;98754.41;6029300;28;20479;-72
2024/01/02 12:07:53;;;;;;;1.75;0.80;;;;;;;6.29;100.00;98756.03;6034292;28;20042;-72
2024/01/02 12:10:49;;;;;;;5.35;2.40;;;;;;;6.39;100.00;98751.41;6029825;28;20034;-74
2024/01/02 12:14:05;;;;;;;1.48;0.60;;;;;;;6.47;100.00;98740.03;6027325;28;20038;-73
2024/01/02 12:17:03;;;;;;;0.90;0.50;;;;;;;6.49;100.00;98732.81;6018266;28;20101;-73
2024/01/02 12:20:05;;;;;;;1.60;0.65;;;;;;;6.55;100.00;98717.13;6022860;28;20120;-73
2024/01/02 12:23:01;;;;;;;2.25;0.38;;;;;;;6.66;100.00;98725.69;6034103;28;20030;-73
2024/01/02 12:26:00;;;;;;;0.70;0.40;;;;;;;6.71;100.00;98718.09;6034539;28;20057;-73
2024/01/02 12:28:59;;;;;;;0.63;0.38;;;;;;;6.70;100.00;98713.81;6033117;28;20441;-73
2024/01/02 12:31:58;;;;;;;0.75;0.43;;;;;;;6.88;100.00;98717.00;6030762;28;20030;-73
2024/01/02 12:35:02;;;;;;;1.98;0.80;;;;;;;6.87;100.00;98704.84;6028719;28;20346;-73
2024/01/02 12:38:18;;;;;;;0.77;0.40;;;;;;;7.01;100.00;98712.81;6026880;28;20030;-73
2024/01/02 12:41:29;;;;;;;1.08;0.40;;;;;;;6.99;100.00;98693.75;6032904;28;20457;-73
2024/01/02 12:44:29;;;;;;;1.08;0.60;;;;;;;7.15;100.00;98700.72;6035841;28;20074;-73
2024/01/02 12:47:28;;;;;;;3.28;1.45;;;;;;;7.17;100.00;98680.31;6038682;28;20125;-72
2024/01/02 12:50:23;;;;;;;2.70;1.08;;;;;;;7.21;100.00;98671.03;6028637;28;20026;-72
2024/01/02 12:53:20;;;;;;;1.98;1.23;;;;;;;7.28;100.00;98666.72;6029618;28;20029;-72
2024/01/02 12:56:17;;;;;;;2.17;0.90;;;;;;;7.38;100.00;98674.41;6035984;28;20444;-72
2024/01/02 12:59:12;;;;;;;2.25;1.00;;;;;;;7.41;100.00;98671.41;6028616;28;20035;-73
2024/01/02 13:02:08;;;;;;;1.93;0.90;;;;;;;7.45;100.00;98678.78;6025299;28;20065;-72
2024/01/02 13:05:04;;;;;;;2.35;1.00;;;;;;;7.50;100.00;98673.78;6027972;28;20268;-72
2024/01/02 13:08:00;;;;;;;4.07;1.35;;;;;;;7.56;100.00;98680.19;6031218;28;20504;-72
2024/01/02 13:10:56;;;;;;;2.42;1.10;;;;;;;7.57;100.00;98671.28;6024002;28;20069;-73
2024/01/02 13:13:52;;;;;;;2.53;1.50;;;;;;;7.62;100.00;98676.84;6034240;28;20030;-72
2024/01/02 13:16:47;;;;;;;3.75;2.20;;;;;;;7.57;100.00;98668.66;6024129;28;20517;-72
2024/01/02 13:19:43;;;;;;;3.20;1.20;;;;;;;7.62;100.00;98669.75;6027045;28;20034;-72
2024/01/02 13:22:39;;;;;;;3.30;1.53;;;;;;;7.64;100.00;98677.47;6030229;28;20028;-72
2024/01/02 13:25:39;;;;;;;5.80;2.45;;;;;;;7.60;100.00;98674.41;6021362;28;20041;-72
2024/01/02 13:28:34;;;;;;;3.72;2.05;;;;;;;7.60;100.00;98670.94;6020532;28;20034;-72
2024/01/02 13:31:31;;;;;;;3.83;1.50;;;;;;;7.68;100.00;98684.88;6024535;28;20131;-73
2024/01/02 13:34:27;;;;;;;3.05;1.70;;;;;;;7.68;100.00;98679.59;6023622;28;20080;-72
2024/01/02 13:37:26;;;;;;;3.83;1.50;;;;;;;7.66;100.00;98670.22;6023338;28;20034;-72
2024/01/02 13:40:23;;;;;;;4.18;1.48;;;;;;;7.70;100.00;98660.94;6032865;28;20025;-72
2024/01/02 13:43:21;;;;;;;2.90;1.40;;;;;;;7.80;100.00;98664.16;6036119;28;20077;-72
2024/01/02 13:46:20;;;;;;;6.53;2.17;;;;;;;7.79;100.00;98660.72;6029246;28;20041;-72
2024/01/02 13:49:16;;;;;;;4.10;1.95;;;;;;;7.87;100.00;98673.00;6024503;28;20038;-72
2024/01/02 13:52:11;;;;;;;3.88;1.58;;;;;;;7.92;100.00;98669.81;6026919;28;20077;-72
2024/01/02 13:55:07;;;;;;;2.17;1.17;;;;;;;7.92;100.00;98673.28;6043927;28;20042;-72
2024/01/02 13:58:10;;;;;;;3.03;1.30;;;;;;;7.97;100.00;98668.28;6025033;28;20041;-72
2024/01/02 14:01:06;;;;;;;1.98;1.20;;;;;;;8.03;100.00;98678.13;6022327;28;20023;-72